Time;durP1;ratioP1;P1;durP2;ratioP2;P2;SDS_P1;SDS_P2;PMS_P1;PMS_P2;Temp;Humidity;BMP_temperature;BMP_pressure;BME280_temperature;BME280_humidity;BME280_pressure;Samples;Min_cycle;Max_cycle;Signal;HPM_P1;HPM_P2
2022/04/10 00:00:22;;;;;;;11.65;6.22;;;;;;;2.95;80.38;101677.75;5051935;28;20045;-67
2022/04/10 00:02:47;;;;;;;13.23;5.88;;;;;;;2.93;80.57;101678.91;5051973;28;20029;-67
2022/04/10 00:05:13;;;;;;;12.23;6.10;;;;;;;2.84;80.39;101667.31;5052438;28;20033;-67
2022/04/10 00:07:39;;;;;;;11.68;5.63;;;;;;;2.86;80.99;101668.00;5039229;28;20056;-67
2022/04/10 00:10:04;;;;;;;11.60;6.35;;;;;;;2.82;81.21;101669.28;5072501;28;20045;-67
2022/04/10 00:12:33;;;;;;;13.15;6.68;;;;;;;2.83;81.49;101676.31;5071063;28;20039;-67
2022/04/10 00:14:58;;;;;;;17.45;6.20;;;;;;;2.83;81.57;101670.97;5072130;28;20029;-67
2022/04/10 00:17:23;;;;;;;15.77;6.45;;;;;;;2.82;81.21;101671.97;5072771;28;20073;-67
2022/04/10 00:19:48;;;;;;;13.52;6.63;;;;;;;2.85;81.38;101671.66;5072589;28;20047;-67
2022/04/10 00:22:14;;;;;;;14.15;6.60;;;;;;;2.81;81.54;101662.28;5072703;28;20033;-66
2022/04/10 00:24:39;;;;;;;12.75;6.53;;;;;;;2.77;81.96;101664.41;5061255;28;20098;-66
2022/04/10 00:27:05;;;;;;;16.88;7.15;;;;;;;2.78;81.64;101662.59;5052634;28;20028;-67
2022/04/10 00:29:31;;;;;;;12.57;7.25;;;;;;;2.78;82.10;101668.75;5052708;28;20033;-67
2022/04/10 00:31:56;;;;;;;13.88;6.93;;;;;;;2.79;81.50;101661.56;5053777;28;20059;-67
2022/04/10 00:34:21;;;;;;;16.35;7.22;;;;;;;2.81;82.26;101668.44;5052259;28;20120;-67
2022/04/10 00:36:46;;;;;;;13.80;6.82;;;;;;;2.78;81.71;101665.25;5052751;28;20461;-67
2022/04/10 00:39:12;;;;;;;13.95;7.07;;;;;;;2.76;82.54;101657.41;5063111;28;20090;-67
2022/04/10 00:41:37;;;;;;;15.00;6.88;;;;;;;2.80;82.33;101663.25;5072433;28;20020;-67
2022/04/10 00:44:10;;;;;;;21.27;8.27;;;;;;;2.82;82.37;101658.59;5070507;28;20028;-67
2022/04/10 00:46:37;;;;;;;13.55;6.88;;;;;;;2.83;82.43;101665.63;5072465;28;20028;-67
2022/04/10 00:49:03;;;;;;;16.13;7.32;;;;;;;2.78;82.52;101652.72;5072034;28;20497;-67
2022/04/10 00:51:46;;;;;;;14.70;7.72;;;;;;;2.78;82.75;101657.25;5060405;28;20033;-67
2022/04/10 00:54:17;;;;;;;12.65;7.47;;;;;;;2.77;82.20;101660.91;5063054;28;20037;-67
2022/04/10 00:56:46;;;;;;;16.60;7.97;;;;;;;2.77;83.22;101658.22;5072536;28;20033;-67
2022/04/10 00:59:13;;;;;;;18.20;8.18;;;;;;;2.72;82.90;101656.00;5061087;28;20044;-67
2022/04/10 01:01:40;;;;;;;14.98;7.40;;;;;;;2.76;82.58;101657.41;5050013;28;20037;-67
2022/04/10 01:04:06;;;;;;;16.20;8.57;;;;;;;2.76;82.52;101656.53;5052096;28;20075;-67
2022/04/10 01:06:35;;;;;;;16.92;8.15;;;;;;;2.76;83.38;101659.22;5062035;28;20063;-67
2022/04/10 01:09:02;;;;;;;14.82;7.88;;;;;;;2.82;82.97;101659.44;5057897;28;20025;-67
2022/04/10 01:11:28;;;;;;;12.73;8.05;;;;;;;2.79;82.72;101661.56;5051708;28;20391;-67
2022/04/10 01:13:53;;;;;;;18.88;8.05;;;;;;;2.79;83.16;101657.09;5067907;28;20036;-67
2022/04/10 01:16:21;;;;;;;15.60;8.30;;;;;;;2.80;82.56;101657.91;5073832;28;20628;-67
2022/04/10 01:18:47;;;;;;;19.48;8.55;;;;;;;2.81;83.07;101659.59;5057157;28;20056;-67
2022/04/10 01:21:18;;;;;;;15.52;8.25;;;;;;;2.86;82.85;101662.66;5056138;28;20080;-67
2022/04/10 01:23:44;;;;;;;19.08;9.05;;;;;;;2.87;82.77;101653.63;5059109;28;20385;-67
2022/04/10 01:26:10;;;;;;;16.90;9.02;;;;;;;2.90;82.63;101649.78;5076079;28;20043;-67
2022/04/10 01:28:35;;;;;;;18.42;8.80;;;;;;;2.94;83.09;101654.69;5070241;28;20029;-66
2022/04/10 01:31:00;;;;;;;17.27;8.32;;;;;;;2.94;82.59;101660.03;5056101;28;20086;-66
2022/04/10 01:33:25;;;;;;;15.48;8.40;;;;;;;2.99;82.50;101657.75;5057771;28;20037;-67
2022/04/10 01:35:51;;;;;;;19.75;8.90;;;;;;;3.00;83.18;101664.78;5056089;28;20526;-67
2022/04/10 01:38:17;;;;;;;15.23;8.60;;;;;;;2.97;82.71;101658.88;5055798;28;20063;-66
2022/04/10 01:40:42;;;;;;;17.65;8.73;;;;;;;3.01;83.14;101653.06;5059704;28;20029;-67
2022/04/10 01:43:07;;;;;;;19.40;8.88;;;;;;;3.04;83.10;101659.13;5073711;28;20035;-67
2022/04/10 01:45:33;;;;;;;19.65;9.20;;;;;;;3.04;83.13;101664.47;5049613;28;20037;-67
2022/04/10 01:47:58;;;;;;;16.77;8.98;;;;;;;3.06;82.50;101659.78;5060572;28;20075;-67
2022/04/10 01:50:23;;;;;;;16.83;9.52;;;;;;;3.03;83.02;101662.78;5073842;28;20029;-67
2022/04/10 01:52:49;;;;;;;13.75;8.75;;;;;;;3.00;83.09;101659.44;5075766;28;20043;-67
2022/04/10 01:55:14;;;;;;;14.73;8.25;;;;;;;2.98;83.30;101661.41;5073533;28;20434;-67
2022/04/10 01:57:39;;;;;;;13.55;8.52;;;;;;;2.99;82.93;101672.97;5075653;28;20032;-67
2022/04/10 02:00:05;;;;;;;17.52;8.75;;;;;;;2.96;82.83;101678.59;5073294;28;20024;-67
2022/04/10 02:02:31;;;;;;;18.40;9.57;;;;;;;2.92;83.45;101675.41;5053244;28;20025;-67
2022/04/10 02:04:56;;;;;;;15.15;9.35;;;;;;;2.91;82.74;101681.72;5037264;28;20400;-67
2022/04/10 02:07:21;;;;;;;19.63;9.50;;;;;;;2.93;83.38;101685.09;5044664;28;20094;-67
2022/04/10 02:09:46;;;;;;;16.80;9.13;;;;;;;2.90;83.34;101676.53;5063621;28;20033;-67
2022/04/10 02:12:12;;;;;;;20.63;9.23;;;;;;;2.89;83.18;101678.38;5056155;28;20037;-67
2022/04/10 02:14:37;;;;;;;17.15;8.95;;;;;;;2.87;83.18;101682.19;5072995;28;20028;-67
2022/04/10 02:17:02;;;;;;;16.08;8.90;;;;;;;2.84;82.83;101675.34;5057297;28;20024;-67
2022/04/10 02:19:28;;;;;;;17.15;8.73;;;;;;;2.77;82.64;101675.09;5061609;28;20033;-67
2022/04/10 02:21:55;;;;;;;15.40;9.00;;;;;;;2.75;83.01;101665.53;5054962;28;20451;-67
2022/04/10 02:24:20;;;;;;;17.58;8.45;;;;;;;2.72;82.40;101679.22;5062698;28;20035;-67
2022/04/10 02:26:45;;;;;;;16.08;9.15;;;;;;;2.66;82.16;101678.00;5064170;28;20045;-67
2022/04/10 02:29:10;;;;;;;16.55;8.65;;;;;;;2.63;82.51;101678.31;5036870;28;20055;-67
2022/04/10 02:31:36;;;;;;;16.15;8.70;;;;;;;2.58;82.83;101680.59;5056056;28;20380;-67
2022/04/10 02:34:01;;;;;;;14.15;9.05;;;;;;;2.54;82.93;101672.03;5054977;28;20032;-67
2022/04/10 02:36:26;;;;;;;18.17;9.13;;;;;;;2.49;82.36;101676.97;5054751;28;20029;-67
2022/04/10 02:38:51;;;;;;;19.08;8.95;;;;;;;2.45;82.60;101673.78;5044974;28;20042;-67
2022/04/10 02:41:17;;;;;;;14.57;8.70;;;;;;;2.45;82.74;101680.97;5073013;28;20033;-67
2022/04/10 02:43:42;;;;;;;16.85;9.30;;;;;;;2.45;82.24;101678.31;5074232;28;20483;-67
2022/04/10 02:46:07;;;;;;;14.80;8.43;;;;;;;2.43;82.96;101682.94;5044115;28;20033;-67
2022/04/10 02:48:33;;;;;;;14.20;9.30;;;;;;;2.40;82.94;101680.56;5054535;28;20376;-67
2022/04/10 02:50:58;;;;;;;13.57;8.70;;;;;;;2.35;82.27;101690.88;5055028;28;20457;-67
2022/04/10 02:53:24;;;;;;;14.27;8.30;;;;;;;2.30;82.34;101692.16;5054088;28;20107;-67
2022/04/10 02:55:49;;;;;;;17.45;9.00;;;;;;;2.29;82.37;101693.16;5054615;28;20025;-67
2022/04/10 02:58:14;;;;;;;16.15;8.88;;;;;;;2.29;82.80;101692.31;5054178;28;20033;-67
2022/04/10 03:00:40;;;;;;;14.73;8.77;;;;;;;2.23;81.95;101692.91;5051901;28;20045;-67
2022/04/10 03:03:05;;;;;;;18.92;9.23;;;;;;;2.21;81.99;101695.72;5054461;28;20036;-66
2022/04/10 03:05:30;;;;;;;16.30;8.52;;;;;;;2.15;82.09;101691.00;5068617;28;20085;-67
2022/04/10 03:07:56;;;;;;;13.40;8.77;;;;;;;2.12;82.03;101696.63;5068368;28;20094;-67
2022/04/10 03:10:21;;;;;;;15.73;8.80;;;;;;;2.09;82.54;101696.91;5055210;28;20063;-67
2022/04/10 03:12:47;;;;;;;13.85;9.05;;;;;;;2.07;82.32;101702.41;5054287;28;20468;-67
2022/04/10 03:15:12;;;;;;;14.20;8.88;;;;;;;2.04;82.50;101699.19;5053954;28;20056;-67
2022/04/10 03:17:37;;;;;;;13.52;9.02;;;;;;;2.00;82.57;101703.16;5055861;28;20025;-67
2022/04/10 03:20:03;;;;;;;14.43;8.82;;;;;;;1.99;82.25;101698.78;5063945;28;20064;-67
2022/04/10 03:22:28;;;;;;;16.40;9.50;;;;;;;2.02;83.23;101707.34;5053871;28;20033;-67
2022/04/10 03:24:54;;;;;;;16.85;9.63;;;;;;;1.98;82.38;101702.44;5071254;28;20032;-67
2022/04/10 03:27:19;;;;;;;16.23;9.32;;;;;;;1.93;81.70;101694.88;5073467;28;20051;-67
2022/04/10 03:29:44;;;;;;;19.15;10.20;;;;;;;1.89;82.28;101698.84;5057305;28;20118;-67
2022/04/10 03:32:09;;;;;;;14.68;9.38;;;;;;;1.87;81.94;101701.66;5054934;28;20055;-67
2022/04/10 03:34:35;;;;;;;15.15;9.13;;;;;;;1.89;82.50;101713.03;5064692;28;20032;-67
2022/04/10 03:37:00;;;;;;;14.43;8.95;;;;;;;1.84;82.04;101715.31;5073516;28;20036;-66
2022/04/10 03:39:25;;;;;;;16.30;9.63;;;;;;;1.84;82.73;101715.31;5071967;28;20044;-67
2022/04/10 03:41:51;;;;;;;13.18;8.90;;;;;;;1.83;82.01;101713.63;5055875;28;20052;-67
2022/04/10 03:44:16;;;;;;;15.30;10.05;;;;;;;1.79;82.71;101712.22;5071163;28;20047;-67
2022/04/10 03:46:41;;;;;;;18.85;9.93;;;;;;;1.78;83.04;101721.19;5072218;28;20032;-67
2022/04/10 03:49:08;;;;;;;16.08;9.27;;;;;;;1.79;83.06;101712.22;5072870;28;20086;-67
2022/04/10 03:51:33;;;;;;;15.95;9.43;;;;;;;1.76;82.40;101718.69;5063141;28;20083;-66
2022/04/10 03:53:58;;;;;;;14.52;9.23;;;;;;;1.77;82.79;101715.03;5053364;28;20550;-67
2022/04/10 03:56:23;;;;;;;15.00;9.82;;;;;;;1.75;83.43;101725.03;5063531;28;20023;-66
2022/04/10 03:58:49;;;;;;;15.18;9.52;;;;;;;1.73;82.97;101723.47;5082009;28;20028;-67
2022/04/10 04:01:14;;;;;;;15.73;9.45;;;;;;;1.77;83.31;101732.88;5089201;28;20032;-67
2022/04/10 04:03:39;;;;;;;17.42;9.73;;;;;;;1.78;83.68;101721.19;5073319;28;20028;-67
2022/04/10 04:06:05;;;;;;;15.38;9.27;;;;;;;1.75;82.62;101721.50;5073073;28;20059;-68
2022/04/10 04:08:30;;;;;;;13.57;9.15;;;;;;;1.79;82.70;101727.41;5072912;28;20032;-67
2022/04/10 04:10:55;;;;;;;17.60;10.13;;;;;;;1.75;82.76;101726.81;5072580;28;20086;-67
2022/04/10 04:13:20;;;;;;;13.50;9.45;;;;;;;1.81;83.00;101728.91;5072604;28;20472;-67
2022/04/10 04:15:46;;;;;;;15.15;9.13;;;;;;;1.75;83.37;101735.69;5073072;28;20033;-67
2022/04/10 04:18:11;;;;;;;15.35;9.50;;;;;;;1.75;83.24;101732.16;5072378;28;20028;-67
2022/04/10 04:20:37;;;;;;;13.57;9.20;;;;;;;1.76;83.02;101733.84;5057727;28;20047;-67
2022/04/10 04:23:02;;;;;;;14.10;9.13;;;;;;;1.78;83.56;101734.53;5067767;28;20032;-67
2022/04/10 04:25:27;;;;;;;13.50;8.52;;;;;;;1.78;82.78;101731.88;5052494;28;20584;-67
2022/04/10 04:27:53;;;;;;;15.52;8.90;;;;;;;1.80;83.28;101729.91;5052758;28;20119;-67
2022/04/10 04:30:18;;;;;;;13.45;8.70;;;;;;;1.73;82.39;101731.47;5052702;28;20081;-67
2022/04/10 04:32:43;;;;;;;16.48;8.70;;;;;;;1.73;82.63;101739.47;5053885;28;20033;-67
2022/04/10 04:35:10;;;;;;;15.57;8.82;;;;;;;1.74;82.62;101735.84;5052865;28;20033;-66
2022/04/10 04:37:40;;;;;;;17.17;8.70;;;;;;;1.74;82.97;101744.69;5052597;28;20033;-67
2022/04/10 04:40:15;;;;;;;16.17;8.98;;;;;;;1.75;82.55;101740.16;5052688;28;20037;-67
2022/04/10 04:42:40;;;;;;;12.55;8.40;;;;;;;1.69;82.12;101740.75;5052587;28;20032;-67
2022/04/10 04:45:06;;;;;;;14.75;8.60;;;;;;;1.67;82.72;101740.06;5052607;28;20491;-67
2022/04/10 04:47:31;;;;;;;15.93;8.98;;;;;;;1.64;82.82;101743.03;5052323;28;20040;-67
2022/04/10 04:49:57;;;;;;;15.82;8.98;;;;;;;1.61;82.87;101746.81;5051964;28;20028;-67
2022/04/10 04:52:22;;;;;;;14.57;8.80;;;;;;;1.61;82.87;101745.97;5062355;28;20037;-66
2022/04/10 04:54:47;;;;;;;12.75;7.80;;;;;;;1.61;83.11;101745.97;5071966;28;20043;-67
2022/04/10 04:57:12;;;;;;;13.90;8.30;;;;;;;1.61;82.57;101753.97;5072541;28;20048;-67
2022/04/10 04:59:38;;;;;;;14.77;8.05;;;;;;;1.58;82.89;101747.09;5053904;28;20037;-67
2022/04/10 05:02:03;;;;;;;14.70;8.30;;;;;;;1.58;82.96;101750.59;5059940;28;20523;-67
2022/04/10 05:04:28;;;;;;;11.73;7.90;;;;;;;1.56;83.61;101747.25;5071684;28;20032;-67
2022/04/10 05:06:54;;;;;;;12.50;7.70;;;;;;;1.55;82.90;101752.72;5072262;28;20131;-66
2022/04/10 05:09:19;;;;;;;12.27;7.90;;;;;;;1.55;83.27;101756.22;5037319;28;20063;-67
2022/04/10 05:11:44;;;;;;;12.40;7.65;;;;;;;1.56;83.17;101765.91;5068331;28;20044;-67
2022/04/10 05:14:09;;;;;;;15.68;7.90;;;;;;;1.51;82.41;101764.66;5072104;28;20045;-67
2022/04/10 05:16:35;;;;;;;14.82;8.20;;;;;;;1.51;82.71;101772.66;5072079;28;20532;-66
2022/04/10 05:19:00;;;;;;;14.20;8.00;;;;;;;1.50;83.09;101769.16;5072039;28;20036;-67
2022/04/10 05:21:25;;;;;;;12.35;7.80;;;;;;;1.52;83.77;101774.34;5056289;28;20040;-67
2022/04/10 05:23:51;;;;;;;15.25;7.90;;;;;;;1.58;83.50;101785.28;5055277;28;20032;-67
2022/04/10 05:26:16;;;;;;;12.55;7.60;;;;;;;1.57;83.79;101775.63;5054075;28;20066;-67
2022/04/10 05:28:41;;;;;;;15.20;7.07;;;;;;;1.65;83.34;101779.41;5071727;28;20426;-67
2022/04/10 05:31:06;;;;;;;11.90;7.03;;;;;;;1.64;84.22;101773.19;5070297;28;20112;-67
2022/04/10 05:33:33;;;;;;;12.77;7.82;;;;;;;1.67;83.20;101782.75;5065869;28;20037;-67
2022/04/10 05:35:58;;;;;;;13.63;7.45;;;;;;;1.72;83.22;101792.03;5052150;28;20073;-67
2022/04/10 05:38:24;;;;;;;12.20;7.20;;;;;;;1.75;83.18;101789.06;5055899;28;20131;-67
2022/04/10 05:40:53;;;;;;;14.55;7.45;;;;;;;1.80;84.22;101796.63;5070210;28;20032;-67
2022/04/10 05:43:20;;;;;;;13.25;7.78;;;;;;;1.81;84.09;101798.31;5071725;28;20490;-67
2022/04/10 05:45:45;;;;;;;13.07;7.47;;;;;;;1.86;84.09;101792.56;5071649;28;20115;-67
2022/04/10 05:48:10;;;;;;;15.27;7.57;;;;;;;1.93;85.05;101794.50;5070297;28;20071;-67
2022/04/10 05:50:36;;;;;;;14.57;7.00;;;;;;;1.98;84.20;101802.06;5062715;28;20040;-66
2022/04/10 05:53:02;;;;;;;11.27;6.55;;;;;;;2.06;85.25;101807.50;5071712;28;20021;-67
2022/04/10 05:55:28;;;;;;;14.45;7.32;;;;;;;2.15;84.70;101810.31;5052994;28;20055;-67
2022/04/10 05:57:54;;;;;;;13.90;6.55;;;;;;;2.23;85.56;101811.25;5070263;28;20032;-67
2022/04/10 06:00:21;;;;;;;13.25;6.93;;;;;;;2.29;84.99;101813.34;5053207;28;20387;-67
2022/04/10 06:02:46;;;;;;;15.45;7.07;;;;;;;2.38;85.40;101818.78;5053086;28;20033;-67
2022/04/10 06:05:12;;;;;;;12.38;6.28;;;;;;;2.46;84.68;101816.22;5037631;28;20112;-67
2022/04/10 06:07:37;;;;;;;11.43;6.38;;;;;;;2.48;84.79;101827.63;5055361;28;20499;-66
2022/04/10 06:10:03;;;;;;;13.18;6.50;;;;;;;2.55;84.97;101825.19;5056019;28;20116;-66
2022/04/10 06:12:29;;;;;;;13.60;7.07;;;;;;;2.62;84.46;101820.94;5055242;28;20032;-66
2022/04/10 06:14:57;;;;;;;15.50;6.78;;;;;;;2.66;84.66;101828.50;5055338;28;20032;-67
2022/04/10 06:17:22;;;;;;;17.25;7.28;;;;;;;2.73;84.29;101827.91;5054823;28;20029;-67
2022/04/10 06:19:48;;;;;;;13.90;6.90;;;;;;;2.82;85.23;101840.38;5069521;28;20044;-67
2022/04/10 06:22:14;;;;;;;14.68;6.93;;;;;;;2.89;84.86;101843.31;5075420;28;20523;-67
2022/04/10 06:24:40;;;;;;;13.50;6.95;;;;;;;2.95;84.83;101848.88;5065271;28;20036;-67
2022/04/10 06:27:05;;;;;;;14.65;6.70;;;;;;;3.03;85.36;101852.63;5064950;28;20392;-67
2022/04/10 06:29:30;;;;;;;12.90;6.97;;;;;;;3.09;84.86;101854.72;5066153;28;20040;-67
2022/04/10 06:31:56;;;;;;;17.83;7.40;;;;;;;3.14;85.08;101860.44;5056145;28;20103;-67
2022/04/10 06:34:21;;;;;;;14.07;6.97;;;;;;;3.19;84.58;101852.81;5056074;28;20076;-67
2022/04/10 06:36:47;;;;;;;11.98;7.15;;;;;;;3.27;84.59;101855.56;5054968;28;20033;-67
2022/04/10 06:39:13;;;;;;;15.93;7.30;;;;;;;3.32;84.87;101861.31;5054860;28;20032;-66
2022/04/10 06:41:38;;;;;;;14.48;7.53;;;;;;;3.39;84.57;101861.53;5054669;28;20032;-66
2022/04/10 06:44:04;;;;;;;12.60;7.10;;;;;;;3.48;85.02;101865.13;5055929;28;20113;-67
2022/04/10 06:46:29;;;;;;;16.67;7.60;;;;;;;3.53;84.89;101862.81;5054353;28;20496;-67
2022/04/10 06:48:55;;;;;;;13.15;7.30;;;;;;;3.62;84.33;101864.56;5065136;28;20056;-67
2022/04/10 06:51:21;;;;;;;15.70;7.90;;;;;;;3.70;84.13;101866.50;5074338;28;20083;-67
2022/04/10 06:53:47;;;;;;;12.88;7.43;;;;;;;3.83;83.43;101871.44;5073823;28;20078;-67
2022/04/10 06:56:13;;;;;;;15.68;7.70;;;;;;;3.83;83.97;101871.44;5074041;28;20029;-67
2022/04/10 06:58:38;;;;;;;15.00;7.05;;;;;;;3.92;83.21;101875.84;5053831;28;20067;-67
2022/04/10 07:01:03;;;;;;;14.75;7.30;;;;;;;4.02;83.73;101875.78;5049132;28;20043;-67
2022/04/10 07:03:29;;;;;;;15.63;7.25;;;;;;;4.09;82.83;101879.50;5053850;28;20037;-67
2022/04/10 07:05:54;;;;;;;12.73;7.25;;;;;;;4.22;83.02;101884.44;5054384;28;20078;-67
2022/04/10 07:08:19;;;;;;;17.77;7.07;;;;;;;4.29;82.38;101888.19;5059961;28;20045;-67
2022/04/10 07:10:45;;;;;;;14.55;6.90;;;;;;;4.39;82.68;101883.56;5053981;28;20060;-67
2022/04/10 07:13:15;;;;;;;14.75;7.07;;;;;;;4.47;83.02;101889.94;5054174;28;20033;-67
2022/04/10 07:15:41;;;;;;;13.32;6.93;;;;;;;4.52;81.71;101890.31;5072638;28;20119;-67
2022/04/10 07:18:07;;;;;;;15.23;7.80;;;;;;;4.50;81.60;101892.31;5074297;28;20119;-67
2022/04/10 07:20:33;;;;;;;14.52;7.43;;;;;;;4.52;81.57;101890.31;5071869;28;20097;-67
2022/04/10 07:25:42;;;;;;;16.05;7.57;;;;;;;4.59;81.08;101896.75;5053572;28;20104;-67
2022/04/10 07:28:07;;;;;;;14.43;7.40;;;;;;;4.70;81.12;101900.97;5069432;28;20049;-67
2022/04/10 07:30:32;;;;;;;14.88;7.35;;;;;;;4.72;81.78;101893.59;5053365;28;20534;-66
2022/04/10 07:32:58;;;;;;;15.10;7.55;;;;;;;4.77;81.59;101897.50;5054616;28;20121;-67
2022/04/10 07:35:24;;;;;;;14.50;7.32;;;;;;;4.85;82.17;101906.56;5054826;28;20033;-67
2022/04/10 07:37:50;;;;;;;13.27;7.45;;;;;;;4.93;81.19;101895.88;5053859;28;20033;-67
2022/04/10 07:40:15;;;;;;;13.40;7.03;;;;;;;5.03;81.23;101903.75;5053749;28;20063;-67
2022/04/10 07:42:44;;;;;;;14.82;7.50;;;;;;;5.17;81.26;101903.16;5053213;28;20089;-67
2022/04/10 07:47:25;;;;;;;12.52;6.95;;;;;;;5.29;81.46;101909.06;5056479;28;20033;-67
2022/04/10 07:47:57;;;;;;;11.52;5.30;;;;;;;5.39;78.67;101909.75;5073257;28;20097;-67
2022/04/10 07:50:23;;;;;;;13.48;5.18;;;;;;;5.45;77.86;101913.59;5054923;28;20033;-67
2022/04/10 07:52:48;;;;;;;11.52;5.70;;;;;;;5.54;78.35;101922.53;5072512;28;20438;-67
2022/04/10 07:55:13;;;;;;;11.00;5.00;;;;;;;5.62;76.97;101920.69;5088882;28;20036;-67
2022/04/10 07:57:38;;;;;;;10.95;5.35;;;;;;;5.72;77.01;101931.28;5093240;28;20486;-69
2022/04/10 08:00:04;;;;;;;12.88;5.05;;;;;;;5.80;76.28;101933.97;5074947;28;20036;-67
2022/04/10 08:02:30;;;;;;;15.50;5.60;;;;;;;5.78;76.11;101935.16;5070421;28;20028;-67
2022/04/10 08:04:55;;;;;;;12.88;4.90;;;;;;;5.85;76.74;101934.31;5065940;28;20032;-69
2022/04/10 08:07:20;;;;;;;15.07;4.85;;;;;;;6.00;75.53;101944.44;5071124;28;20053;-71
2022/04/10 08:09:46;;;;;;;10.00;4.93;;;;;;;6.06;75.83;101948.31;5052861;28;20036;-71
2022/04/10 08:12:11;;;;;;;18.40;5.32;;;;;;;6.08;75.93;101944.41;5052909;28;20029;-71
2022/04/10 08:14:38;;;;;;;15.25;4.80;;;;;;;6.15;76.02;101945.44;5053919;28;20051;-67
2022/04/10 08:17:03;;;;;;;11.23;3.70;;;;;;;6.23;72.74;101949.13;5035394;28;20061;-67
2022/04/10 08:19:28;;;;;;;8.70;3.90;;;;;;;6.38;71.31;101952.81;5025529;28;20033;-68
2022/04/10 08:21:53;;;;;;;9.77;4.53;;;;;;;6.46;73.20;101951.94;5053649;28;20116;-67
2022/04/10 08:24:19;;;;;;;9.00;4.15;;;;;;;6.57;72.63;101952.44;5057063;28;20021;-67
2022/04/10 08:26:44;;;;;;;9.48;3.05;;;;;;;6.64;69.69;101947.19;5077871;28;20031;-68
2022/04/10 08:29:10;;;;;;;8.70;3.10;;;;;;;6.78;69.80;101948.38;5093172;28;20458;-72
2022/04/10 08:31:35;;;;;;;12.95;3.13;;;;;;;6.84;67.23;101947.66;5045655;28;20040;-68
2022/04/10 08:34:00;;;;;;;11.00;2.92;;;;;;;6.91;68.02;101948.66;5052784;28;20036;-68
2022/04/10 08:36:26;;;;;;;10.27;3.15;;;;;;;6.95;66.42;101951.00;5052728;28;20059;-71
2022/04/10 08:38:51;;;;;;;8.95;2.55;;;;;;;6.96;64.80;101956.22;5034665;28;20110;-72
2022/04/10 08:41:20;;;;;;;10.68;2.78;;;;;;;6.90;66.30;101967.66;5053397;28;20032;-68
2022/04/10 08:43:46;;;;;;;8.35;2.72;;;;;;;6.86;63.63;101955.56;5064628;28;20032;-72
2022/04/10 08:46:15;;;;;;;9.00;2.72;;;;;;;6.85;64.51;101965.47;5066997;28;20060;-72
2022/04/10 08:48:41;;;;;;;8.93;2.60;;;;;;;6.83;64.68;101964.00;5082302;28;20044;-69
2022/04/10 08:51:06;;;;;;;8.20;2.58;;;;;;;6.85;64.90;101965.47;5052445;28;20521;-69
2022/04/10 08:53:32;;;;;;;7.60;2.30;;;;;;;6.82;65.45;101962.28;5052131;28;20029;-68
2022/04/10 08:55:57;;;;;;;6.57;2.60;;;;;;;6.90;66.32;101976.56;5052553;28;20036;-69
2022/04/10 08:58:23;;;;;;;10.38;2.90;;;;;;;6.89;67.78;101982.97;5052159;28;20033;-69
2022/04/10 09:00:48;;;;;;;8.88;3.00;;;;;;;6.83;69.66;101975.56;5049970;28;20032;-67
2022/04/10 09:03:13;;;;;;;9.70;3.03;;;;;;;6.82;69.76;101976.56;5052358;28;20035;-67
2022/04/10 09:05:40;;;;;;;7.68;3.38;;;;;;;6.85;69.65;101973.53;5051964;28;20029;-69
2022/04/10 09:08:07;;;;;;;11.95;3.17;;;;;;;6.82;69.04;101973.88;5052380;28;20051;-68
2022/04/10 09:10:52;;;;;;;10.68;2.88;;;;;;;6.82;70.86;101981.97;5071330;28;20124;-68
2022/04/10 09:13:26;;;;;;;11.50;3.40;;;;;;;6.82;70.77;101984.66;5072378;28;20229;-69
2022/04/10 09:15:52;;;;;;;9.32;3.22;;;;;;;6.88;69.48;101985.81;5072104;28;20468;-69
2022/04/10 09:18:18;;;;;;;10.70;3.10;;;;;;;6.98;69.38;101989.16;5072343;28;20029;-67
2022/04/10 09:20:43;;;;;;;9.40;3.47;;;;;;;7.09;69.82;101979.88;5072034;28;20482;-72
2022/04/10 09:23:09;;;;;;;11.45;2.75;;;;;;;7.12;66.37;101979.50;5054345;28;20031;-71
2022/04/10 09:25:42;;;;;;;9.15;2.75;;;;;;;7.22;68.32;101974.78;5054204;28;20457;-74
2022/04/10 09:28:08;;;;;;;7.45;2.80;;;;;;;7.28;65.52;101978.63;5069503;28;20111;-71
2022/04/10 09:30:35;;;;;;;9.60;3.10;;;;;;;7.35;64.83;101976.91;5061496;28;20112;-71
2022/04/10 09:33:01;;;;;;;8.82;2.90;;;;;;;7.38;63.68;101976.56;5071961;28;20048;-71
2022/04/10 09:35:41;;;;;;;12.25;2.88;;;;;;;7.43;64.53;101978.72;5088637;28;20051;-69
2022/04/10 09:38:06;;;;;;;5.05;2.25;;;;;;;7.50;60.77;101982.34;5095579;28;20103;-71
2022/04/10 09:40:36;;;;;;;10.98;2.42;;;;;;;7.57;63.10;101972.56;5096340;28;20032;-67
2022/04/10 09:43:10;;;;;;;8.85;2.95;;;;;;;7.63;63.30;101974.53;5060829;28;20033;-69
2022/04/10 09:45:43;;;;;;;9.05;2.30;;;;;;;7.76;61.19;101975.81;5059626;28;20039;-69
2022/04/10 09:48:29;;;;;;;8.88;2.30;;;;;;;7.85;60.03;101977.47;5037872;28;20037;-70
2022/04/10 09:50:59;;;;;;;4.75;2.20;;;;;;;7.91;56.99;101982.13;5056547;28;20029;-68
2022/04/10 09:53:26;;;;;;;10.40;2.25;;;;;;;7.94;58.15;101970.13;5055809;28;20078;-68
2022/04/10 09:55:57;;;;;;;6.65;2.10;;;;;;;7.93;57.04;101966.59;5055440;28;20037;-72
2022/04/10 09:58:23;;;;;;;4.57;1.83;;;;;;;7.96;53.90;101973.50;5037888;28;20027;-67
2022/04/10 10:00:56;;;;;;;4.95;1.80;;;;;;;8.04;54.55;101975.28;5066092;28;20111;-69
2022/04/10 10:03:26;;;;;;;7.22;2.10;;;;;;;8.18;54.56;101971.78;5095817;28;20059;-67
2022/04/10 10:05:53;;;;;;;4.88;1.90;;;;;;;8.16;53.74;101973.84;5078440;28;20066;-69
2022/04/10 10:08:19;;;;;;;4.25;1.90;;;;;;;8.15;52.96;101969.44;5075719;28;20063;-69
2022/04/10 10:10:46;;;;;;;6.28;1.88;;;;;;;8.14;53.35;101959.72;5077670;28;20032;-73
2022/04/10 10:13:13;;;;;;;7.15;2.25;;;;;;;8.34;55.48;101971.66;5068177;28;20037;-71
2022/04/10 10:15:39;;;;;;;7.85;2.20;;;;;;;8.41;54.88;101958.28;5070316;28;20028;-72
2022/04/10 10:18:06;;;;;;;5.93;2.17;;;;;;;8.47;55.88;101964.81;5075317;28;20036;-71
2022/04/10 10:20:33;;;;;;;6.88;2.35;;;;;;;8.55;55.88;101958.53;5077087;28;20064;-69
2022/04/10 10:23:03;;;;;;;7.93;2.17;;;;;;;8.56;55.92;101963.75;5076609;28;20421;-67
2022/04/10 10:25:45;;;;;;;5.68;2.20;;;;;;;8.54;54.55;101965.75;5077334;28;20040;-70
2022/04/10 10:28:48;;;;;;;5.13;2.03;;;;;;;8.51;54.79;101971.53;5095052;28;20028;-68
2022/04/10 10:31:32;;;;;;;6.07;2.40;;;;;;;8.50;53.39;101961.78;5094884;28;20471;-70
2022/04/10 10:34:02;;;;;;;5.25;2.10;;;;;;;8.56;53.47;101950.25;5094775;28;20031;-70
2022/04/10 10:36:28;;;;;;;6.78;2.30;;;;;;;8.65;53.13;101956.38;5074098;28;20036;-71
2022/04/10 10:38:57;;;;;;;10.55;2.45;;;;;;;8.80;54.07;101962.63;5074722;28;20035;-70
2022/04/10 10:41:22;;;;;;;5.18;1.90;;;;;;;8.86;52.13;101956.50;5056958;28;20039;-71
2022/04/10 10:43:48;;;;;;;7.87;2.20;;;;;;;8.99;54.01;101961.22;5074662;28;20120;-69
2022/04/10 10:46:24;;;;;;;8.38;2.75;;;;;;;9.00;53.69;101954.81;5074938;28;20263;-70
2022/04/10 10:49:17;;;;;;;5.45;2.30;;;;;;;9.07;54.92;101959.44;5056048;28;20083;-69
2022/04/10 10:51:44;;;;;;;8.23;2.25;;;;;;;9.12;54.69;101957.88;5074573;28;20029;-71
2022/04/10 10:54:37;;;;;;;6.03;2.10;;;;;;;9.18;54.16;101953.59;5066197;28;20083;-69
2022/04/10 10:57:21;;;;;;;9.20;2.10;;;;;;;9.22;52.00;101957.56;5028324;28;20124;-71
2022/04/10 10:59:50;;;;;;;7.72;2.17;;;;;;;9.27;51.58;101957.84;5054017;28;20033;-69
2022/04/10 11:02:19;;;;;;;4.82;2.03;;;;;;;9.28;51.49;101955.97;5052220;28;20025;-67
2022/04/10 11:04:46;;;;;;;5.32;2.08;;;;;;;9.35;52.27;101952.31;5054214;28;20037;-70
2022/04/10 11:07:12;;;;;;;3.42;1.92;;;;;;;9.58;51.96;101956.75;5054370;28;20053;-67
2022/04/10 11:09:48;;;;;;;9.57;2.75;;;;;;;9.72;51.72;101955.88;5053928;28;20079;-68
2022/04/10 11:12:14;;;;;;;8.40;2.70;;;;;;;9.74;50.98;101944.88;5054316;28;20033;-68
2022/04/10 11:14:41;;;;;;;4.57;2.05;;;;;;;9.73;50.85;101949.41;5056140;28;20047;-68
2022/04/10 11:17:27;;;;;;;8.77;2.45;;;;;;;9.65;49.89;101952.25;5074133;28;20028;-70
2022/04/10 11:19:56;;;;;;;5.80;2.30;;;;;;;9.49;50.57;101957.88;5074253;28;20035;-68
2022/04/10 11:22:29;;;;;;;5.88;2.03;;;;;;;9.38;50.80;101964.63;5074118;28;20040;-71
2022/04/10 11:24:58;;;;;;;7.15;2.15;;;;;;;9.29;51.04;101950.38;5073641;28;20029;-70
2022/04/10 11:27:58;;;;;;;5.90;2.10;;;;;;;9.26;51.59;101947.25;5074033;28;20021;-68